sensor_id;sensor_type;location;lat;lon;timestamp;pressure;altitude;pressure_sealevel;temperature;humidity
40285;BME280;25997;50.214;19.354;2023-05-22T00:01:54;98006.00;;;13.91;40.37
40285;BME280;25997;50.214;19.354;2023-05-22T00:04:57;98011.28;;;13.90;40.04
40285;BME280;25997;50.214;19.354;2023-05-22T00:08:00;98006.00;;;13.91;40.07
40285;BME280;25997;50.214;19.354;2023-05-22T00:11:06;98001.56;;;13.87;40.13
40285;BME280;25997;50.214;19.354;2023-05-22T00:14:08;98006.84;;;13.86;40.18
40285;BME280;25997;50.214;19.354;2023-05-22T00:17:13;97999.72;;;13.80;40.14
40285;BME280;25997;50.214;19.354;2023-05-22T00:20:16;98002.28;;;13.76;40.02
40285;BME280;25997;50.214;19.354;2023-05-22T00:23:18;97996.16;;;13.75;39.99
40285;BME280;25997;50.214;19.354;2023-05-22T00:26:23;97997.88;;;13.73;39.85
40285;BME280;25997;50.214;19.354;2023-05-22T00:29:26;97992.56;;;13.70;39.92
40285;BME280;25997;50.214;19.354;2023-05-22T00:32:30;97990.72;;;13.64;40.10
40285;BME280;25997;50.214;19.354;2023-05-22T00:35:33;97984.47;;;13.58;40.18
40285;BME280;25997;50.214;19.354;2023-05-22T00:38:35;97980.84;;;13.48;40.31
40285;BME280;25997;50.214;19.354;2023-05-22T00:41:39;97979.84;;;13.39;40.49
40285;BME280;25997;50.214;19.354;2023-05-22T00:44:42;97981.50;;;13.32;40.55
40285;BME280;25997;50.214;19.354;2023-05-22T00:47:44;97984.00;;;13.23;40.72
40285;BME280;25997;50.214;19.354;2023-05-22T00:51:06;97981.28;;;13.17;40.79
40285;BME280;25997;50.214;19.354;2023-05-22T00:54:27;97981.28;;;13.17;40.63
40285;BME280;25997;50.214;19.354;2023-05-22T00:57:51;97976.94;;;13.22;40.47
40285;BME280;25997;50.214;19.354;2023-05-22T01:01:12;97973.41;;;13.20;40.43
40285;BME280;25997;50.214;19.354;2023-05-22T01:04:34;97968.97;;;13.18;40.52
40285;BME280;25997;50.214;19.354;2023-05-22T01:07:55;97963.53;;;13.07;40.73
40285;BME280;25997;50.214;19.354;2023-05-22T01:11:20;97968.72;;;13.03;40.83
40285;BME280;25997;50.214;19.354;2023-05-22T01:14:54;97966.94;;;13.02;40.82
40285;BME280;25997;50.214;19.354;2023-05-22T01:18:24;97958.06;;;12.95;40.81
40285;BME280;25997;50.214;19.354;2023-05-22T01:21:56;97955.31;;;12.87;41.21
40285;BME280;25997;50.214;19.354;2023-05-22T01:25:44;97954.31;;;12.81;41.42
40285;BME280;25997;50.214;19.354;2023-05-22T01:29:19;97947.22;;;12.75;41.36
40285;BME280;25997;50.214;19.354;2023-05-22T01:32:30;97953.25;;;12.70;41.48
40285;BME280;25997;50.214;19.354;2023-05-22T01:35:34;97957.56;;;12.65;41.98
40285;BME280;25997;50.214;19.354;2023-05-22T01:38:40;97961.00;;;12.61;41.98
40285;BME280;25997;50.214;19.354;2023-05-22T01:41:43;97958.22;;;12.52;42.10
40285;BME280;25997;50.214;19.354;2023-05-22T01:44:47;97956.34;;;12.45;42.53
40285;BME280;25997;50.214;19.354;2023-05-22T01:48:10;97954.44;;;12.36;42.84
40285;BME280;25997;50.214;19.354;2023-05-22T01:51:41;97958.53;;;12.19;43.23
40285;BME280;25997;50.214;19.354;2023-05-22T01:55:08;97962.47;;;11.97;43.14
40285;BME280;25997;50.214;19.354;2023-05-22T01:58:36;97954.97;;;11.74;43.28
40285;BME280;25997;50.214;19.354;2023-05-22T02:02:02;97959.22;;;11.67;43.30
40285;BME280;25997;50.214;19.354;2023-05-22T02:05:28;97960.31;;;11.77;42.94
40285;BME280;25997;50.214;19.354;2023-05-22T02:08:52;97960.59;;;11.90;42.54
40285;BME280;25997;50.214;19.354;2023-05-22T02:12:14;97957.25;;;11.99;42.51
40285;BME280;25997;50.214;19.354;2023-05-22T02:15:36;97958.06;;;11.96;42.52
40285;BME280;25997;50.214;19.354;2023-05-22T02:18:58;97956.84;;;11.79;42.75
40285;BME280;25997;50.214;19.354;2023-05-22T02:22:26;97955.72;;;11.67;42.95
40285;BME280;25997;50.214;19.354;2023-05-22T02:25:46;97956.22;;;11.49;43.45
40285;BME280;25997;50.214;19.354;2023-05-22T02:29:07;97956.72;;;11.31;43.82
40285;BME280;25997;50.214;19.354;2023-05-22T02:32:29;97962.66;;;11.23;44.13
40285;BME280;25997;50.214;19.354;2023-05-22T02:35:50;97957.31;;;11.18;43.87
40285;BME280;25997;50.214;19.354;2023-05-22T02:39:12;97952.00;;;11.15;43.97
40285;BME280;25997;50.214;19.354;2023-05-22T02:42:33;97947.50;;;11.11;44.22
40285;BME280;25997;50.214;19.354;2023-05-22T02:45:55;97952.69;;;11.08;44.50
40285;BME280;25997;50.214;19.354;2023-05-22T02:49:16;97954.00;;;10.91;44.78
40285;BME280;25997;50.214;19.354;2023-05-22T02:52:37;97957.28;;;10.81;44.83
40285;BME280;25997;50.214;19.354;2023-05-22T02:55:59;97943.09;;;10.73;45.08
40285;BME280;25997;50.214;19.354;2023-05-22T02:59:20;97950.72;;;10.62;45.44
40285;BME280;25997;50.214;19.354;2023-05-22T03:02:41;97940.94;;;10.55;45.49
40285;BME280;25997;50.214;19.354;2023-05-22T03:05:44;97946.06;;;10.51;45.56
40285;BME280;25997;50.214;19.354;2023-05-22T03:08:46;97948.59;;;10.48;45.69
40285;BME280;25997;50.214;19.354;2023-05-22T03:11:50;97945.88;;;10.43;45.84
40285;BME280;25997;50.214;19.354;2023-05-22T03:14:52;97947.53;;;10.40;45.92
40285;BME280;25997;50.214;19.354;2023-05-22T03:17:55;97946.69;;;10.42;45.92
40285;BME280;25997;50.214;19.354;2023-05-22T03:20:58;97944.16;;;10.45;46.06
40285;BME280;25997;50.214;19.354;2023-05-22T03:24:00;97943.28;;;10.45;46.04
40285;BME280;25997;50.214;19.354;2023-05-22T03:27:04;97945.91;;;10.45;46.27
40285;BME280;25997;50.214;19.354;2023-05-22T03:30:13;97947.66;;;10.44;46.27
40285;BME280;25997;50.214;19.354;2023-05-22T03:33:24;97939.81;;;10.46;46.26
40285;BME280;25997;50.214;19.354;2023-05-22T03:36:26;97944.31;;;10.51;46.32
40285;BME280;25997;50.214;19.354;2023-05-22T03:39:30;97951.50;;;10.58;46.17
40285;BME280;25997;50.214;19.354;2023-05-22T03:42:39;97949.97;;;10.66;46.15
40285;BME280;25997;50.214;19.354;2023-05-22T03:45:42;97942.25;;;10.75;46.24
40285;BME280;25997;50.214;19.354;2023-05-22T03:48:45;97945.16;;;10.86;46.15
40285;BME280;25997;50.214;19.354;2023-05-22T03:51:48;97948.88;;;10.96;46.06
40285;BME280;25997;50.214;19.354;2023-05-22T03:54:50;97957.84;;;11.04;46.12
40285;BME280;25997;50.214;19.354;2023-05-22T03:57:54;97956.31;;;11.13;46.26
40285;BME280;25997;50.214;19.354;2023-05-22T04:00:57;97954.69;;;11.18;46.17
40285;BME280;25997;50.214;19.354;2023-05-22T04:04:01;97958.41;;;11.28;46.10
40285;BME280;25997;50.214;19.354;2023-05-22T04:07:05;97944.59;;;11.38;45.81
40285;BME280;25997;50.214;19.354;2023-05-22T04:10:09;97945.59;;;11.44;45.94
40285;BME280;25997;50.214;19.354;2023-05-22T04:13:32;97952.03;;;11.57;45.90
40285;BME280;25997;50.214;19.354;2023-05-22T04:16:53;97945.28;;;11.71;45.72
40285;BME280;25997;50.214;19.354;2023-05-22T04:20:14;97940.38;;;11.89;45.43
40285;BME280;25997;50.214;19.354;2023-05-22T04:23:36;97953.78;;;12.01;45.37
40285;BME280;25997;50.214;19.354;2023-05-22T04:26:58;97939.13;;;12.12;45.48
40285;BME280;25997;50.214;19.354;2023-05-22T04:30:20;97943.78;;;12.29;45.41
40285;BME280;25997;50.214;19.354;2023-05-22T04:33:43;97943.31;;;12.51;45.31
40285;BME280;25997;50.214;19.354;2023-05-22T04:36:48;97947.06;;;12.66;45.34
40285;BME280;25997;50.214;19.354;2023-05-22T04:39:52;97949.94;;;12.81;45.31
40285;BME280;25997;50.214;19.354;2023-05-22T04:42:58;97952.75;;;12.93;45.27
40285;BME280;25997;50.214;19.354;2023-05-22T04:46:02;97948.66;;;13.11;45.20
40285;BME280;25997;50.214;19.354;2023-05-22T04:49:05;97944.50;;;13.28;45.23
40285;BME280;25997;50.214;19.354;2023-05-22T04:52:08;97947.34;;;13.43;45.28
40285;BME280;25997;50.214;19.354;2023-05-22T04:55:11;97942.31;;;13.62;45.23
40285;BME280;25997;50.214;19.354;2023-05-22T04:58:14;97949.59;;;13.82;45.07
40285;BME280;25997;50.214;19.354;2023-05-22T05:01:18;97948.97;;;14.02;44.93
40285;BME280;25997;50.214;19.354;2023-05-22T05:04:20;97942.97;;;14.15;44.75
40285;BME280;25997;50.214;19.354;2023-05-22T05:07:23;97937.81;;;14.27;44.97
40285;BME280;25997;50.214;19.354;2023-05-22T05:10:45;97943.31;;;14.50;44.50
40285;BME280;25997;50.214;19.354;2023-05-22T05:14:06;97943.47;;;14.71;44.40
40285;BME280;25997;50.214;19.354;2023-05-22T05:17:29;97950.75;;;14.96;43.94
40285;BME280;25997;50.214;19.354;2023-05-22T05:20:50;97956.25;;;15.22;43.50
40285;BME280;25997;50.214;19.354;2023-05-22T05:24:11;97954.56;;;15.42;43.47
40285;BME280;25997;50.214;19.354;2023-05-22T05:27:32;97953.78;;;15.61;43.11
40285;BME280;25997;50.214;19.354;2023-05-22T05:30:54;97955.69;;;15.84;43.00
40285;BME280;25997;50.214;19.354;2023-05-22T05:34:37;97961.06;;;16.06;42.57
40285;BME280;25997;50.214;19.354;2023-05-22T05:38:09;97960.22;;;16.24;42.35
40285;BME280;25997;50.214;19.354;2023-05-22T05:41:33;97962.97;;;16.46;41.84
40285;BME280;25997;50.214;19.354;2023-05-22T05:44:59;97963.81;;;16.67;41.71
40285;BME280;25997;50.214;19.354;2023-05-22T05:48:04;97958.53;;;16.83;41.69
40285;BME280;25997;50.214;19.354;2023-05-22T05:51:11;97955.88;;;16.98;41.43
40285;BME280;25997;50.214;19.354;2023-05-22T05:54:17;97957.66;;;17.22;41.19
40285;BME280;25997;50.214;19.354;2023-05-22T05:57:20;97954.09;;;17.44;40.86
40285;BME280;25997;50.214;19.354;2023-05-22T06:00:24;97951.34;;;17.61;40.74
40285;BME280;25997;50.214;19.354;2023-05-22T06:03:28;97951.34;;;17.62;39.96
40285;BME280;25997;50.214;19.354;2023-05-22T06:07:17;97946.91;;;17.75;39.50
40285;BME280;25997;50.214;19.354;2023-05-22T06:10:40;97953.03;;;17.86;39.26
40285;BME280;25997;50.214;19.354;2023-05-22T06:14:07;97959.19;;;18.02;38.72
40285;BME280;25997;50.214;19.354;2023-05-22T06:17:29;97941.34;;;18.25;38.11
40285;BME280;25997;50.214;19.354;2023-05-22T06:20:50;97950.97;;;18.44;37.78
40285;BME280;25997;50.214;19.354;2023-05-22T06:23:54;97931.41;;;18.52;37.24
40285;BME280;25997;50.214;19.354;2023-05-22T06:26:58;97941.19;;;18.50;37.40
40285;BME280;25997;50.214;19.354;2023-05-22T06:30:01;97941.19;;;18.47;37.10
40285;BME280;25997;50.214;19.354;2023-05-22T06:33:08;97934.13;;;18.43;36.72
40285;BME280;25997;50.214;19.354;2023-05-22T06:36:11;97936.84;;;18.37;36.17
40285;BME280;25997;50.214;19.354;2023-05-22T06:39:16;97940.38;;;18.39;35.87
40285;BME280;25997;50.214;19.354;2023-05-22T06:42:31;97942.09;;;18.48;35.68
40285;BME280;25997;50.214;19.354;2023-05-22T06:45:53;97941.06;;;18.67;35.54
40285;BME280;25997;50.214;19.354;2023-05-22T06:49:09;97946.22;;;18.87;35.63
40285;BME280;25997;50.214;19.354;2023-05-22T06:52:23;97938.16;;;18.96;35.29
40285;BME280;25997;50.214;19.354;2023-05-22T06:55:27;97935.47;;;19.02;34.91
40285;BME280;25997;50.214;19.354;2023-05-22T06:58:58;97936.22;;;19.14;34.13
40285;BME280;25997;50.214;19.354;2023-05-22T07:02:39;97937.88;;;19.24;33.95
40285;BME280;25997;50.214;19.354;2023-05-22T07:06:23;97946.47;;;19.57;34.21
40285;BME280;25997;50.214;19.354;2023-05-22T07:09:44;97940.94;;;19.75;33.71
40285;BME280;25997;50.214;19.354;2023-05-22T07:13:06;97947.78;;;19.94;33.88
40285;BME280;25997;50.214;19.354;2023-05-22T07:16:29;97944.19;;;19.96;33.37
40285;BME280;25997;50.214;19.354;2023-05-22T07:19:50;97946.75;;;20.09;33.19
40285;BME280;25997;50.214;19.354;2023-05-22T07:22:53;97937.91;;;20.02;32.79
40285;BME280;25997;50.214;19.354;2023-05-22T07:25:56;97941.47;;;20.01;32.84
40285;BME280;25997;50.214;19.354;2023-05-22T07:29:05;97943.06;;;20.17;33.05
40285;BME280;25997;50.214;19.354;2023-05-22T07:32:08;97948.16;;;20.35;33.00
40285;BME280;25997;50.214;19.354;2023-05-22T07:35:11;97952.47;;;20.44;32.35
40285;BME280;25997;50.214;19.354;2023-05-22T07:38:14;97948.91;;;20.43;32.73
40285;BME280;25997;50.214;19.354;2023-05-22T07:41:47;97938.19;;;20.46;32.59
40285;BME280;25997;50.214;19.354;2023-05-22T07:45:12;97938.13;;;20.51;31.97
40285;BME280;25997;50.214;19.354;2023-05-22T07:48:34;97941.59;;;20.57;32.10
40285;BME280;25997;50.214;19.354;2023-05-22T07:51:36;97943.41;;;20.54;31.84
40285;BME280;25997;50.214;19.354;2023-05-22T07:54:44;97947.16;;;20.41;31.27
40285;BME280;25997;50.214;19.354;2023-05-22T07:57:47;97948.06;;;20.41;31.61
40285;BME280;25997;50.214;19.354;2023-05-22T08:00:59;97939.84;;;20.53;31.50
40285;BME280;25997;50.214;19.354;2023-05-22T08:04:02;97953.22;;;20.52;31.25
40285;BME280;25997;50.214;19.354;2023-05-22T08:07:05;97950.31;;;20.70;31.90
40285;BME280;25997;50.214;19.354;2023-05-22T08:10:13;97943.78;;;20.88;30.77
40285;BME280;25997;50.214;19.354;2023-05-22T08:13:17;97939.44;;;20.81;31.03
40285;BME280;25997;50.214;19.354;2023-05-22T08:16:21;97941.16;;;20.86;30.58
40285;BME280;25997;50.214;19.354;2023-05-22T08:19:23;97953.56;;;20.87;30.70
40285;BME280;25997;50.214;19.354;2023-05-22T08:22:28;97938.53;;;20.83;29.57
40285;BME280;25997;50.214;19.354;2023-05-22T08:25:31;97945.75;;;20.76;29.19
40285;BME280;25997;50.214;19.354;2023-05-22T08:28:33;97941.34;;;20.75;29.79
40285;BME280;25997;50.214;19.354;2023-05-22T08:31:38;97942.31;;;20.68;30.05
40285;BME280;25997;50.214;19.354;2023-05-22T08:34:40;97938.56;;;20.80;30.46
40285;BME280;25997;50.214;19.354;2023-05-22T08:37:43;97930.41;;;20.91;30.12
40285;BME280;25997;50.214;19.354;2023-05-22T08:40:47;97939.88;;;21.07;30.47
40285;BME280;25997;50.214;19.354;2023-05-22T08:43:50;97931.41;;;21.32;29.68
40285;BME280;25997;50.214;19.354;2023-05-22T08:46:53;97936.47;;;21.49;30.19
40285;BME280;25997;50.214;19.354;2023-05-22T08:50:19;97934.28;;;21.71;29.75
40285;BME280;25997;50.214;19.354;2023-05-22T08:53:22;97930.38;;;21.85;29.91
40285;BME280;25997;50.214;19.354;2023-05-22T08:56:25;97928.31;;;22.01;30.29
40285;BME280;25997;50.214;19.354;2023-05-22T08:59:29;97927.22;;;22.09;29.59
40285;BME280;25997;50.214;19.354;2023-05-22T09:02:33;97927.13;;;22.15;29.60
40285;BME280;25997;50.214;19.354;2023-05-22T09:05:36;97921.97;;;22.06;29.04
40285;BME280;25997;50.214;19.354;2023-05-22T09:08:39;97928.72;;;22.23;29.84
40285;BME280;25997;50.214;19.354;2023-05-22T09:11:43;97925.88;;;22.30;28.93
40285;BME280;25997;50.214;19.354;2023-05-22T09:14:45;97911.66;;;22.28;28.99
40285;BME280;25997;50.214;19.354;2023-05-22T09:17:49;97928.56;;;22.30;28.91
40285;BME280;25997;50.214;19.354;2023-05-22T09:20:52;97918.53;;;22.38;29.03
40285;BME280;25997;50.214;19.354;2023-05-22T09:23:58;97925.47;;;22.47;29.33
40285;BME280;25997;50.214;19.354;2023-05-22T09:27:02;97921.22;;;22.40;28.51
40285;BME280;25997;50.214;19.354;2023-05-22T09:30:07;97908.19;;;22.23;29.06
40285;BME280;25997;50.214;19.354;2023-05-22T09:33:13;97918.38;;;22.46;29.61
40285;BME280;25997;50.214;19.354;2023-05-22T09:36:17;97918.78;;;22.67;30.05
40285;BME280;25997;50.214;19.354;2023-05-22T09:39:19;97929.31;;;23.10;29.56
40285;BME280;25997;50.214;19.354;2023-05-22T09:42:23;97917.47;;;23.52;29.23
40285;BME280;25997;50.214;19.354;2023-05-22T09:45:26;97911.75;;;23.97;29.87
40285;BME280;25997;50.214;19.354;2023-05-22T09:48:33;97913.97;;;24.12;27.78
40285;BME280;25997;50.214;19.354;2023-05-22T09:51:39;97906.13;;;24.35;27.60
40285;BME280;25997;50.214;19.354;2023-05-22T09:54:49;97902.66;;;24.59;27.09
40285;BME280;25997;50.214;19.354;2023-05-22T09:57:55;97900.63;;;24.93;29.16
40285;BME280;25997;50.214;19.354;2023-05-22T10:00:59;97902.09;;;25.54;28.76
40285;BME280;25997;50.214;19.354;2023-05-22T10:04:04;97889.53;;;26.03;27.48
40285;BME280;25997;50.214;19.354;2023-05-22T10:07:09;97890.25;;;26.31;27.05
40285;BME280;25997;50.214;19.354;2023-05-22T10:10:32;97900.06;;;26.55;27.29
40285;BME280;25997;50.214;19.354;2023-05-22T10:13:35;97901.81;;;26.78;27.59
40285;BME280;25997;50.214;19.354;2023-05-22T10:16:38;97899.63;;;26.66;26.96
40285;BME280;25997;50.214;19.354;2023-05-22T10:19:44;97902.66;;;26.12;25.56
40285;BME280;25997;50.214;19.354;2023-05-22T10:22:47;97898.97;;;26.14;27.15
40285;BME280;25997;50.214;19.354;2023-05-22T10:25:51;97897.00;;;25.95;26.56
40285;BME280;25997;50.214;19.354;2023-05-22T10:28:58;97908.16;;;26.09;26.74
40285;BME280;25997;50.214;19.354;2023-05-22T10:32:13;97905.38;;;26.57;26.36
40285;BME280;25997;50.214;19.354;2023-05-22T10:35:37;97896.47;;;26.76;25.62
40285;BME280;25997;50.214;19.354;2023-05-22T10:39:02;97893.94;;;26.73;23.69
40285;BME280;25997;50.214;19.354;2023-05-22T10:42:11;97900.91;;;26.99;26.22
40285;BME280;25997;50.214;19.354;2023-05-22T10:45:15;97903.56;;;26.57;26.14
40285;BME280;25997;50.214;19.354;2023-05-22T10:48:20;97895.13;;;26.66;25.38
40285;BME280;25997;50.214;19.354;2023-05-22T10:51:25;97891.59;;;26.64;26.31
40285;BME280;25997;50.214;19.354;2023-05-22T10:54:40;97886.19;;;26.86;25.10
40285;BME280;25997;50.214;19.354;2023-05-22T10:57:43;97888.84;;;27.29;26.61
40285;BME280;25997;50.214;19.354;2023-05-22T11:00:45;97894.50;;;27.83;26.03
40285;BME280;25997;50.214;19.354;2023-05-22T11:03:51;97885.97;;;28.31;25.68
40285;BME280;25997;50.214;19.354;2023-05-22T11:07:03;97877.16;;;28.28;23.34
40285;BME280;25997;50.214;19.354;2023-05-22T11:10:07;97875.25;;;28.30;25.18
40285;BME280;25997;50.214;19.354;2023-05-22T11:13:10;97880.38;;;28.17;24.92
40285;BME280;25997;50.214;19.354;2023-05-22T11:16:15;97866.47;;;27.67;23.51
40285;BME280;25997;50.214;19.354;2023-05-22T11:19:20;97863.63;;;27.50;24.23
40285;BME280;25997;50.214;19.354;2023-05-22T11:22:29;97856.25;;;27.74;23.89
40285;BME280;25997;50.214;19.354;2023-05-22T11:25:32;97857.97;;;27.95;24.20
40285;BME280;25997;50.214;19.354;2023-05-22T11:28:37;97857.50;;;27.27;24.41
40285;BME280;25997;50.214;19.354;2023-05-22T11:31:40;97852.75;;;27.11;24.10
40285;BME280;25997;50.214;19.354;2023-05-22T11:34:44;97853.06;;;26.62;24.21
40285;BME280;25997;50.214;19.354;2023-05-22T11:37:50;97855.53;;;26.45;24.06
40285;BME280;25997;50.214;19.354;2023-05-22T11:40:52;97853.72;;;26.67;24.47
40285;BME280;25997;50.214;19.354;2023-05-22T11:43:55;97859.38;;;26.83;23.97
40285;BME280;25997;50.214;19.354;2023-05-22T11:46:57;97859.84;;;26.92;23.93
40285;BME280;25997;50.214;19.354;2023-05-22T11:50:19;97863.25;;;26.97;23.60
40285;BME280;25997;50.214;19.354;2023-05-22T11:53:23;97866.53;;;27.46;23.11
40285;BME280;25997;50.214;19.354;2023-05-22T11:56:25;97865.06;;;27.98;23.47
40285;BME280;25997;50.214;19.354;2023-05-22T11:59:28;97862.69;;;28.66;23.48
40285;BME280;25997;50.214;19.354;2023-05-22T12:02:30;97862.47;;;28.88;22.40
40285;BME280;25997;50.214;19.354;2023-05-22T12:05:32;97862.94;;;29.14;23.01
40285;BME280;25997;50.214;19.354;2023-05-22T12:08:36;97864.66;;;29.67;23.05
40285;BME280;25997;50.214;19.354;2023-05-22T12:11:39;97863.06;;;29.46;22.41
40285;BME280;25997;50.214;19.354;2023-05-22T12:14:47;97858.28;;;29.34;22.52
40285;BME280;25997;50.214;19.354;2023-05-22T12:17:53;97860.69;;;29.40;21.66
40285;BME280;25997;50.214;19.354;2023-05-22T12:20:56;97867.63;;;29.28;22.87
40285;BME280;25997;50.214;19.354;2023-05-22T12:24:03;97850.25;;;28.98;22.20
40285;BME280;25997;50.214;19.354;2023-05-22T12:27:07;97855.91;;;29.10;22.65
40285;BME280;25997;50.214;19.354;2023-05-22T12:30:12;97846.69;;;29.49;22.22
40285;BME280;25997;50.214;19.354;2023-05-22T12:33:14;97848.44;;;30.00;22.12
40285;BME280;25997;50.214;19.354;2023-05-22T12:36:16;97847.53;;;29.99;22.58
40285;BME280;25997;50.214;19.354;2023-05-22T12:39:20;97841.09;;;30.02;22.09
40285;BME280;25997;50.214;19.354;2023-05-22T12:42:23;97835.56;;;29.38;22.40
40285;BME280;25997;50.214;19.354;2023-05-22T12:45:26;97825.63;;;28.85;22.32
40285;BME280;25997;50.214;19.354;2023-05-22T12:48:28;97842.34;;;28.57;22.57
40285;BME280;25997;50.214;19.354;2023-05-22T12:51:31;97825.63;;;28.68;23.56
40285;BME280;25997;50.214;19.354;2023-05-22T12:54:35;97820.00;;;28.90;22.78
40285;BME280;25997;50.214;19.354;2023-05-22T12:57:55;97818.31;;;28.70;22.87
40285;BME280;25997;50.214;19.354;2023-05-22T13:01:17;97814.69;;;28.52;22.64
40285;BME280;25997;50.214;19.354;2023-05-22T13:04:29;97812.59;;;28.76;22.36
40285;BME280;25997;50.214;19.354;2023-05-22T13:07:31;97814.81;;;28.49;22.30
40285;BME280;25997;50.214;19.354;2023-05-22T13:10:35;97817.34;;;28.35;22.67
40285;BME280;25997;50.214;19.354;2023-05-22T13:13:38;97825.53;;;28.15;22.94
40285;BME280;25997;50.214;19.354;2023-05-22T13:16:40;97810.66;;;27.48;22.76
40285;BME280;25997;50.214;19.354;2023-05-22T13:19:43;97806.69;;;26.96;22.92
40285;BME280;25997;50.214;19.354;2023-05-22T13:22:45;97810.00;;;26.39;23.43
40285;BME280;25997;50.214;19.354;2023-05-22T13:25:49;97802.53;;;26.01;23.53
40285;BME280;25997;50.214;19.354;2023-05-22T13:28:52;97797.66;;;25.65;24.26
40285;BME280;25997;50.214;19.354;2023-05-22T13:31:54;97797.97;;;25.33;24.20
40285;BME280;25997;50.214;19.354;2023-05-22T13:34:56;97797.13;;;25.08;24.36
40285;BME280;25997;50.214;19.354;2023-05-22T13:37:59;97790.88;;;24.81;24.31
40285;BME280;25997;50.214;19.354;2023-05-22T13:41:03;97789.41;;;24.71;24.58
40285;BME280;25997;50.214;19.354;2023-05-22T13:44:06;97790.38;;;24.70;24.32
40285;BME280;25997;50.214;19.354;2023-05-22T13:47:08;97789.41;;;25.47;24.63
40285;BME280;25997;50.214;19.354;2023-05-22T13:50:11;97796.88;;;26.52;24.25
40285;BME280;25997;50.214;19.354;2023-05-22T13:53:20;97794.03;;;27.77;23.31
40285;BME280;25997;50.214;19.354;2023-05-22T13:56:23;97787.53;;;28.37;23.41
40285;BME280;25997;50.214;19.354;2023-05-22T13:59:26;97789.22;;;29.09;22.66
40285;BME280;25997;50.214;19.354;2023-05-22T14:02:29;97777.50;;;29.43;22.13
40285;BME280;25997;50.214;19.354;2023-05-22T14:05:31;97788.75;;;29.36;22.32
40285;BME280;25997;50.214;19.354;2023-05-22T14:08:33;97777.16;;;29.49;21.92
40285;BME280;25997;50.214;19.354;2023-05-22T14:11:38;97779.81;;;29.83;21.96
40285;BME280;25997;50.214;19.354;2023-05-22T14:14:40;97776.03;;;29.70;22.02
40285;BME280;25997;50.214;19.354;2023-05-22T14:17:42;97782.91;;;29.60;21.94
40285;BME280;25997;50.214;19.354;2023-05-22T14:20:45;97780.03;;;29.63;21.58
40285;BME280;25997;50.214;19.354;2023-05-22T14:23:48;97778.91;;;29.83;21.85
40285;BME280;25997;50.214;19.354;2023-05-22T14:26:51;97774.56;;;29.96;21.54
40285;BME280;25997;50.214;19.354;2023-05-22T14:29:57;97768.81;;;29.86;21.34
40285;BME280;25997;50.214;19.354;2023-05-22T14:33:00;97768.34;;;30.11;21.92
40285;BME280;25997;50.214;19.354;2023-05-22T14:36:02;97773.16;;;30.51;21.15
40285;BME280;25997;50.214;19.354;2023-05-22T14:39:05;97762.09;;;30.56;20.65
40285;BME280;25997;50.214;19.354;2023-05-22T14:42:08;97755.44;;;30.61;21.27
40285;BME280;25997;50.214;19.354;2023-05-22T14:45:11;97766.47;;;30.58;21.34
40285;BME280;25997;50.214;19.354;2023-05-22T14:48:13;97759.03;;;30.46;21.34
40285;BME280;25997;50.214;19.354;2023-05-22T14:51:17;97762.81;;;30.13;21.46
40285;BME280;25997;50.214;19.354;2023-05-22T14:54:19;97748.34;;;29.96;21.41
40285;BME280;25997;50.214;19.354;2023-05-22T14:57:25;97748.63;;;30.08;21.16
40285;BME280;25997;50.214;19.354;2023-05-22T15:00:27;97748.09;;;30.32;21.32
40285;BME280;25997;50.214;19.354;2023-05-22T15:03:30;97746.38;;;30.77;21.34
40285;BME280;25997;50.214;19.354;2023-05-22T15:06:32;97749.31;;;30.88;20.98
40285;BME280;25997;50.214;19.354;2023-05-22T15:09:35;97753.31;;;30.96;21.09
40285;BME280;25997;50.214;19.354;2023-05-22T15:12:38;97750.53;;;30.06;21.10
40285;BME280;25997;50.214;19.354;2023-05-22T15:15:41;97740.41;;;29.62;21.14
40285;BME280;25997;50.214;19.354;2023-05-22T15:18:43;97743.69;;;29.67;21.05
40285;BME280;25997;50.214;19.354;2023-05-22T15:21:46;97738.25;;;30.00;21.25
40285;BME280;25997;50.214;19.354;2023-05-22T15:25:02;97730.91;;;30.18;20.16
40285;BME280;25997;50.214;19.354;2023-05-22T15:28:06;97734.38;;;29.88;21.02
40285;BME280;25997;50.214;19.354;2023-05-22T15:31:08;97727.56;;;29.33;21.99
40285;BME280;25997;50.214;19.354;2023-05-22T15:34:11;97726.31;;;28.72;21.34
40285;BME280;25997;50.214;19.354;2023-05-22T15:37:14;97731.69;;;28.00;21.69
40285;BME280;25997;50.214;19.354;2023-05-22T15:40:16;97726.78;;;27.91;21.92
40285;BME280;25997;50.214;19.354;2023-05-22T15:43:24;97729.25;;;27.96;21.74
40285;BME280;25997;50.214;19.354;2023-05-22T15:46:27;97731.34;;;27.89;22.33
40285;BME280;25997;50.214;19.354;2023-05-22T15:49:29;97731.00;;;27.78;22.52
40285;BME280;25997;50.214;19.354;2023-05-22T15:52:31;97727.66;;;27.73;22.26
40285;BME280;25997;50.214;19.354;2023-05-22T15:55:34;97724.88;;;27.36;22.57
40285;BME280;25997;50.214;19.354;2023-05-22T15:58:38;97719.94;;;27.27;23.02
40285;BME280;25997;50.214;19.354;2023-05-22T16:01:40;97718.00;;;27.10;23.39
40285;BME280;25997;50.214;19.354;2023-05-22T16:04:43;97713.81;;;26.63;23.52
40285;BME280;25997;50.214;19.354;2023-05-22T16:07:45;97713.13;;;26.16;23.96
40285;BME280;25997;50.214;19.354;2023-05-22T16:10:47;97699.91;;;25.66;23.97
40285;BME280;25997;50.214;19.354;2023-05-22T16:14:10;97706.28;;;25.86;23.55
40285;BME280;25997;50.214;19.354;2023-05-22T16:17:30;97710.47;;;25.93;23.79
40285;BME280;25997;50.214;19.354;2023-05-22T16:20:51;97706.09;;;26.12;23.77
40285;BME280;25997;50.214;19.354;2023-05-22T16:24:12;97701.19;;;26.43;23.58
40285;BME280;25997;50.214;19.354;2023-05-22T16:27:33;97708.09;;;26.70;23.56
40285;BME280;25997;50.214;19.354;2023-05-22T16:30:56;97703.47;;;26.32;23.32